Time;durP1;ratioP1;P1;durP2;ratioP2;P2;SDS_P1;SDS_P2;PMS_P1;PMS_P2;Temp;Humidity;BMP_temperature;BMP_pressure;BME280_temperature;BME280_humidity;BME280_pressure;Samples;Min_cycle;Max_cycle;Signal;HPM_P1;HPM_P2
2022/06/12 00:01:46;;;;;;;12.65;4.60;;;;;;;17.70;80.23;100443.38;1889557;75;21047;-62
2022/06/12 00:04:15;;;;;;;12.10;5.65;;;;;;;17.70;80.31;100442.05;1889680;75;21148;-63
2022/06/12 00:06:43;;;;;;;13.03;5.15;;;;;;;17.71;80.28;100439.77;1889439;75;21030;-62
2022/06/12 00:09:12;;;;;;;11.95;5.22;;;;;;;17.69;79.98;100440.36;1889240;75;21007;-63
2022/06/12 00:11:41;;;;;;;12.10;4.55;;;;;;;17.63;79.78;100431.51;1890061;75;21083;-63
2022/06/12 00:14:11;;;;;;;13.60;4.95;;;;;;;17.59;79.83;100434.00;1889532;75;21531;-63
2022/06/12 00:16:41;;;;;;;15.75;4.28;;;;;;;17.57;79.82;100434.59;1889283;75;21607;-63
2022/06/12 00:19:10;;;;;;;9.78;4.53;;;;;;;17.58;79.88;100433.65;1889382;75;21078;-64
2022/06/12 00:21:40;;;;;;;13.40;4.33;;;;;;;17.60;79.85;100431.72;1889173;76;21039;-62
2022/06/12 00:24:11;;;;;;;9.50;5.58;;;;;;;17.59;79.63;100432.67;1890329;75;21497;-62
2022/06/12 00:26:43;;;;;;;8.08;4.53;;;;;;;17.56;79.61;100427.10;1891880;76;21058;-63
2022/06/12 00:29:14;;;;;;;15.18;5.50;;;;;;;17.54;79.65;100422.86;1891883;74;21039;-63
2022/06/12 00:31:46;;;;;;;14.68;5.17;;;;;;;17.52;79.83;100422.09;1892061;76;21031;-63
2022/06/12 00:34:17;;;;;;;12.50;5.15;;;;;;;17.49;79.91;100425.84;1891951;76;21031;-63
2022/06/12 00:36:46;;;;;;;14.23;5.20;;;;;;;17.45;79.77;100419.55;1892020;76;21019;-62
2022/06/12 00:39:17;;;;;;;14.10;5.05;;;;;;;17.44;79.67;100420.49;1891925;76;21551;-59
2022/06/12 00:41:48;;;;;;;12.50;5.45;;;;;;;17.39;79.75;100420.81;1891979;76;21038;-60
2022/06/12 00:44:20;;;;;;;10.75;4.62;;;;;;;17.31;80.17;100418.71;1891982;76;21148;-62
2022/06/12 00:46:54;;;;;;;8.55;4.47;;;;;;;17.27;80.24;100419.91;1891798;76;21568;-62
2022/06/12 00:49:29;;;;;;;9.25;4.65;;;;;;;17.21;80.33;100416.82;1891900;76;21023;-63
2022/06/12 00:52:22;;;;;;;10.70;4.92;;;;;;;17.18;80.29;100416.58;1892047;76;21519;-63
2022/06/12 00:54:53;;;;;;;9.95;4.67;;;;;;;17.14;80.26;100415.10;1892161;76;21116;-62
2022/06/12 00:57:24;;;;;;;9.93;5.08;;;;;;;17.10;80.30;100414.95;1891890;75;21106;-62
2022/06/12 00:59:58;;;;;;;6.40;4.25;;;;;;;17.06;80.10;100409.01;1891852;76;21559;-62
2022/06/12 01:02:31;;;;;;;11.30;5.03;;;;;;;17.03;79.97;100400.39;1892097;76;21031;-63
2022/06/12 01:07:51;;;;;;;12.35;4.53;;;;;;;16.95;79.87;100387.16;1891962;75;21466;-62
2022/06/12 01:10:23;;;;;;;7.53;4.12;;;;;;;16.88;80.12;100383.72;1892170;76;21059;-62
2022/06/12 01:12:54;;;;;;;9.83;4.33;;;;;;;16.82;80.27;100388.97;1892043;76;21034;-62
2022/06/12 01:15:32;;;;;;;14.18;5.28;;;;;;;16.81;80.24;100389.91;1892058;76;21075;-62
2022/06/12 01:18:01;;;;;;;9.45;5.05;;;;;;;16.79;80.41;100390.50;1891895;75;21482;-62
2022/06/12 01:20:32;;;;;;;11.08;4.83;;;;;;;16.77;80.59;100391.09;1892019;75;21058;-62
2022/06/12 01:23:25;;;;;;;8.83;4.83;;;;;;;16.74;80.83;100394.80;1892048;76;21034;-65
2022/06/12 01:25:57;;;;;;;7.83;5.15;;;;;;;16.68;81.24;100381.11;1897580;75;21070;-65
2022/06/12 01:28:52;;;;;;;12.30;5.47;;;;;;;16.63;81.43;100381.91;1898795;75;21043;-61
2022/06/12 01:31:36;;;;;;;9.00;5.42;;;;;;;16.61;81.25;100383.34;1898935;75;21473;-63
2022/06/12 01:34:19;;;;;;;16.87;5.10;;;;;;;16.62;81.04;100377.53;1899025;74;21026;-62
2022/06/12 01:36:59;;;;;;;9.78;4.65;;;;;;;16.62;80.88;100378.41;1898400;75;21100;-63
2022/06/12 01:39:49;;;;;;;9.70;4.85;;;;;;;16.61;80.63;100379.34;1899029;75;21488;-62
2022/06/12 01:42:33;;;;;;;15.15;4.83;;;;;;;16.58;80.55;100371.12;1899071;75;21038;-61
2022/06/12 01:45:27;;;;;;;25.95;6.20;;;;;;;16.56;80.52;100371.71;1898515;75;21034;-61
2022/06/12 01:48:10;;;;;;;14.10;6.25;;;;;;;16.55;80.74;100379.30;1898877;75;21587;-61
2022/06/12 01:50:42;;;;;;;24.82;5.55;;;;;;;16.54;80.77;100373.63;1898143;75;21116;-61
2022/06/12 01:53:25;;;;;;;23.02;5.50;;;;;;;16.54;80.62;100369.64;1898870;75;21082;-61
2022/06/12 01:56:02;;;;;;;17.70;5.60;;;;;;;16.54;80.65;100369.64;1899123;75;21035;-62
2022/06/12 01:58:34;;;;;;;16.50;5.40;;;;;;;16.55;80.75;100371.33;1898277;75;20999;-62
2022/06/12 02:01:27;;;;;;;23.20;5.65;;;;;;;16.53;80.85;100370.59;1898608;75;21042;-62
2022/06/12 02:04:04;;;;;;;14.80;5.72;;;;;;;16.49;80.98;100371.77;1898754;75;21031;-63
2022/06/12 02:06:36;;;;;;;12.60;5.62;;;;;;;16.51;81.08;100367.19;1889757;75;21034;-63
2022/06/12 02:09:25;;;;;;;8.58;4.70;;;;;;;16.57;81.17;100368.56;1897845;75;21112;-62
2022/06/12 02:14:46;;;;;;;10.82;4.75;;;;;;;16.72;81.27;100366.63;1898857;75;21022;-62
2022/06/12 02:17:17;;;;;;;9.00;4.72;;;;;;;16.79;81.27;100363.42;1896901;75;21059;-62
2022/06/12 02:19:48;;;;;;;17.37;5.25;;;;;;;16.83;81.39;100356.11;1898179;75;21485;-62
2022/06/12 02:22:23;;;;;;;9.13;5.20;;;;;;;16.87;81.41;100349.61;1898914;75;21034;-62
2022/06/12 02:25:00;;;;;;;9.75;4.78;;;;;;;16.94;81.31;100349.55;1897786;75;21101;-62
2022/06/12 02:27:41;;;;;;;9.13;4.30;;;;;;;17.00;81.09;100348.73;1891497;75;21035;-62
2022/06/12 02:30:16;;;;;;;16.12;4.35;;;;;;;17.12;80.95;100345.20;1891871;76;21082;-62
2022/06/12 02:32:50;;;;;;;8.43;4.12;;;;;;;17.27;80.72;100345.40;1890525;76;21051;-62
2022/06/12 02:35:44;;;;;;;6.03;3.67;;;;;;;17.41;80.49;100343.06;1890507;75;21039;-62
2022/06/12 02:38:16;;;;;;;9.35;3.37;;;;;;;17.55;80.30;100342.02;1891808;74;21490;-62
2022/06/12 02:40:48;;;;;;;9.38;3.40;;;;;;;17.75;80.24;100336.05;1890635;75;21035;-62
2022/06/12 02:43:19;;;;;;;13.03;3.95;;;;;;;17.94;80.15;100338.67;1892008;76;21027;-62
2022/06/12 02:45:57;;;;;;;8.88;3.75;;;;;;;18.12;79.89;100339.92;1892037;76;21529;-62
2022/06/12 02:48:26;;;;;;;7.75;3.42;;;;;;;18.28;79.48;100333.44;1892003;75;21039;-67
2022/06/12 02:51:03;;;;;;;9.45;3.70;;;;;;;18.36;79.06;100329.67;1892321;76;21039;-63
2022/06/12 02:53:35;;;;;;;8.25;3.95;;;;;;;18.45;78.75;100331.61;1892097;76;21116;-65
2022/06/12 02:56:32;;;;;;;10.13;3.60;;;;;;;18.59;78.46;100324.34;1891096;75;21089;-65
2022/06/12 02:59:09;;;;;;;11.70;4.05;;;;;;;18.74;78.10;100328.93;1891814;75;21552;-65
2022/06/12 03:01:42;;;;;;;8.80;5.65;;;;;;;18.86;77.57;100321.32;1892184;76;21442;-65
2022/06/12 03:04:22;;;;;;;13.77;8.70;;;;;;;19.03;77.28;100318.62;1891994;75;21081;-65
2022/06/12 03:06:51;;;;;;;14.18;10.15;;;;;;;19.21;77.13;100318.94;1892303;76;21597;-62
2022/06/12 03:09:20;;;;;;;17.48;10.50;;;;;;;19.38;76.77;100318.88;1892192;76;21050;-64
2022/06/12 03:11:49;;;;;;;20.60;13.85;;;;;;;19.57;76.65;100316.39;1892058;76;21106;-64
2022/06/12 03:14:21;;;;;;;16.60;10.03;;;;;;;19.77;76.46;100318.76;1892168;74;21043;-64
2022/06/12 03:16:50;;;;;;;12.33;7.85;;;;;;;19.95;76.43;100318.16;1891909;76;21042;-63
2022/06/12 03:19:28;;;;;;;11.43;7.00;;;;;;;20.22;76.48;100314.95;1892072;76;21469;-63
2022/06/12 03:22:11;;;;;;;11.50;5.45;;;;;;;20.48;76.28;100309.17;1892198;76;21595;-63
2022/06/12 03:24:43;;;;;;;;;;;;;;;20.71;75.55;100310.70;1894985;76;21465;-63
2022/06/12 03:27:31;;;;;;;6.53;3.95;;;;;;;20.94;75.44;100311.31;1897106;75;20123;-64
2022/06/12 03:30:06;;;;;;;9.98;4.42;;;;;;;21.12;75.12;100313.33;1899056;75;21097;-62
2022/06/12 03:32:47;;;;;;;7.47;4.35;;;;;;;21.32;74.69;100310.16;1898842;75;21030;-62
2022/06/12 03:35:18;;;;;;;6.28;3.45;;;;;;;21.46;74.38;100315.64;1898931;75;21034;-63
2022/06/12 03:37:59;;;;;;;8.55;3.25;;;;;;;21.62;73.92;100314.58;1898665;75;21108;-60
2022/06/12 03:40:30;;;;;;;6.40;2.77;;;;;;;21.77;73.41;100318.51;1898980;74;21031;-64
2022/06/12 03:43:04;;;;;;;8.63;3.42;;;;;;;21.91;72.64;100310.53;1896719;75;21559;-60
2022/06/12 03:45:54;;;;;;;5.55;2.98;;;;;;;21.93;71.28;100308.55;1898351;75;21042;-62
2022/06/12 03:48:31;;;;;;;7.67;3.00;;;;;;;21.92;70.34;100306.84;1898368;75;21034;-62
2022/06/12 03:51:06;;;;;;;3.77;2.50;;;;;;;21.98;69.99;100313.47;1898994;75;21112;-62
2022/06/12 03:53:53;;;;;;;4.10;2.75;;;;;;;22.06;69.85;100310.92;1897784;75;21610;-62
2022/06/12 03:59:32;;;;;;;11.50;3.95;;;;;;;22.31;69.08;100304.09;1879668;75;21027;-61
2022/06/12 04:02:03;;;;;;;8.93;3.60;;;;;;;22.35;68.42;100302.83;1898865;75;21147;-60
2022/06/12 04:04:34;;;;;;;6.70;3.25;;;;;;;22.42;67.84;100303.06;1898919;74;21026;-60
2022/06/12 04:07:06;;;;;;;7.12;3.52;;;;;;;22.52;67.15;100296.31;1898802;75;21010;-60
2022/06/12 04:09:37;;;;;;;7.62;2.65;;;;;;;22.64;66.51;100291.11;1899007;75;21092;-60
2022/06/12 04:12:09;;;;;;;9.35;3.10;;;;;;;22.80;66.02;100289.62;1898828;75;21027;-59
2022/06/12 04:14:40;;;;;;;10.18;2.98;;;;;;;22.94;65.45;100291.78;1897606;75;21524;-59
2022/06/12 04:17:09;;;;;;;11.03;4.70;;;;;;;23.06;64.97;100294.64;1898789;75;21505;-59
2022/06/12 04:22:42;;;;;;;7.62;3.22;;;;;;;23.34;64.03;100296.42;1898884;75;21469;-64
2022/06/12 04:25:22;;;;;;;6.10;2.40;;;;;;;23.55;63.53;100292.06;1898033;75;21171;-64
2022/06/12 04:27:51;;;;;;;16.02;3.58;;;;;;;23.75;62.88;100288.20;1892786;75;21191;-65
2022/06/12 04:30:22;;;;;;;6.25;3.40;;;;;;;24.01;62.39;100288.23;1892031;74;21038;-65
2022/06/12 04:32:52;;;;;;;14.70;6.35;;;;;;;24.36;62.15;100288.27;1891986;76;21144;-62
2022/06/12 04:35:21;;;;;;;7.87;3.80;;;;;;;24.72;61.76;100283.59;1891392;75;21058;-62
2022/06/12 04:37:50;;;;;;;6.95;4.05;;;;;;;25.04;61.20;100290.06;1892055;76;21109;-62
2022/06/12 04:40:24;;;;;;;8.50;4.25;;;;;;;25.21;60.72;100282.84;1891946;75;21011;-63
2022/06/12 04:42:53;;;;;;;6.78;3.10;;;;;;;25.35;60.16;100282.23;1892079;76;21106;-64
2022/06/12 04:45:22;;;;;;;13.70;5.20;;;;;;;25.52;59.70;100292.51;1892049;76;21039;-63
2022/06/12 04:47:51;;;;;;;8.68;3.20;;;;;;;25.62;58.75;100285.63;1892067;76;21082;-62
2022/06/12 04:50:20;;;;;;;6.87;3.12;;;;;;;25.70;58.26;100291.00;1892049;76;21470;-61
2022/06/12 04:52:49;;;;;;;6.15;2.67;;;;;;;25.85;57.96;100288.45;1891918;76;21006;-61
2022/06/12 04:55:18;;;;;;;3.72;2.20;;;;;;;25.90;57.01;100282.56;1892057;76;21112;-60
2022/06/12 04:57:46;;;;;;;4.30;2.15;;;;;;;25.97;56.96;100278.20;1892109;76;21047;-64
2022/06/12 05:00:16;;;;;;;4.22;2.10;;;;;;;26.12;56.63;100275.13;1892023;76;21034;-64
2022/06/12 05:02:45;;;;;;;4.78;2.50;;;;;;;26.28;56.24;100270.68;1892154;74;21031;-63
2022/06/12 05:05:14;;;;;;;7.10;2.20;;;;;;;26.44;55.93;100278.72;1891781;76;21035;-64
2022/06/12 05:07:42;;;;;;;4.67;2.60;;;;;;;26.80;55.56;100272.88;1891980;76;21065;-64
2022/06/12 05:10:13;;;;;;;5.25;2.77;;;;;;;27.05;54.95;100274.06;1892035;76;21057;-64
2022/06/12 05:12:42;;;;;;;7.50;2.58;;;;;;;27.15;53.86;100275.52;1891975;76;21497;-63
2022/06/12 05:15:16;;;;;;;4.62;2.42;;;;;;;27.24;53.10;100272.25;1892052;76;21093;-65
2022/06/12 05:17:44;;;;;;;6.53;3.15;;;;;;;27.37;52.53;100273.52;1891082;76;21544;-65
2022/06/12 05:20:16;;;;;;;4.30;3.05;;;;;;;27.45;52.09;100274.83;1891980;76;21480;-66
2022/06/12 05:22:45;;;;;;;9.25;3.37;;;;;;;27.45;51.49;100270.77;1890610;76;21539;-66
2022/06/12 05:25:13;;;;;;;8.70;4.37;;;;;;;27.52;51.30;100278.49;1892013;76;21031;-63
2022/06/12 05:28:03;;;;;;;7.97;3.90;;;;;;;27.72;51.37;100276.95;1895271;75;21172;-63
2022/06/12 05:30:34;;;;;;;9.53;3.10;;;;;;;27.93;50.58;100277.30;1923227;74;21138;-64
2022/06/12 05:33:03;;;;;;;6.67;2.50;;;;;;;28.08;49.93;100278.98;1923968;74;21027;-63
2022/06/12 05:35:33;;;;;;;5.83;2.90;;;;;;;28.34;49.82;100272.27;1924057;74;21023;-63
2022/06/12 05:38:02;;;;;;;3.80;2.30;;;;;;;28.48;49.35;100271.94;1924071;74;21493;-63
2022/06/12 05:40:34;;;;;;;5.08;2.72;;;;;;;28.77;49.12;100273.77;1923924;74;21039;-65
2022/06/12 05:43:03;;;;;;;3.85;2.30;;;;;;;28.81;47.54;100267.45;1924211;74;21031;-64
2022/06/12 05:45:33;;;;;;;8.33;2.35;;;;;;;28.87;47.76;100263.48;1923945;74;21446;-63
2022/06/12 05:48:04;;;;;;;12.05;2.80;;;;;;;29.00;47.41;100264.14;1923930;74;21461;-63
2022/06/12 05:50:36;;;;;;;6.17;2.50;;;;;;;29.29;47.41;100254.75;1923454;74;21046;-63
2022/06/12 05:53:05;;;;;;;8.17;2.60;;;;;;;29.28;46.82;100256.63;1924152;74;21097;-63
2022/06/12 05:55:34;;;;;;;4.45;2.05;;;;;;;29.49;46.90;100256.28;1923940;74;21539;-64
2022/06/12 05:58:03;;;;;;;6.08;2.95;;;;;;;29.59;45.25;100264.94;1923940;74;21051;-65
2022/06/12 06:00:33;;;;;;;9.08;2.77;;;;;;;29.51;44.58;100263.21;1923993;74;21050;-63
2022/06/12 06:03:02;;;;;;;8.25;2.83;;;;;;;29.57;44.69;100261.06;1923967;74;21470;-67
2022/06/12 06:05:31;;;;;;;11.60;4.03;;;;;;;29.59;44.00;100254.92;1923947;74;21054;-67
2022/06/12 06:08:00;;;;;;;4.08;2.40;;;;;;;29.78;44.54;100255.30;1923883;73;21132;-64
2022/06/12 06:10:29;;;;;;;7.10;2.45;;;;;;;30.00;44.15;100249.30;1903979;74;21019;-64
2022/06/12 06:12:58;;;;;;;8.38;2.92;;;;;;;30.07;43.34;100246.10;1890910;76;21543;-65
2022/06/12 06:15:26;;;;;;;8.88;2.40;;;;;;;30.33;43.15;100237.28;1910943;74;21100;-64
2022/06/12 06:17:55;;;;;;;11.83;2.58;;;;;;;30.60;42.78;100238.23;1923990;74;21156;-64
2022/06/12 06:20:28;;;;;;;7.28;2.27;;;;;;;30.66;41.80;100229.80;1923810;74;21051;-66
2022/06/12 06:22:57;;;;;;;8.30;2.47;;;;;;;31.14;42.15;100239.23;1924202;74;21035;-65
2022/06/12 06:25:28;;;;;;;7.90;2.90;;;;;;;31.40;41.64;100235.39;1924051;74;21101;-65
2022/06/12 06:27:58;;;;;;;7.08;2.40;;;;;;;31.39;41.36;100240.50;1899333;74;21104;-64
2022/06/12 06:30:30;;;;;;;10.23;2.90;;;;;;;31.26;41.10;100236.72;1893529;74;21532;-63
2022/06/12 06:32:59;;;;;;;9.68;3.33;;;;;;;31.05;41.11;100232.31;1877348;76;21589;-63
2022/06/12 06:35:28;;;;;;;8.53;2.45;;;;;;;30.52;40.93;100232.14;1866181;77;21067;-61
2022/06/12 06:37:56;;;;;;;7.30;2.00;;;;;;;30.16;41.37;100233.21;1866170;77;21122;-65
2022/06/12 06:40:28;;;;;;;10.40;3.35;;;;;;;29.82;41.66;100235.73;1866078;77;21125;-65
2022/06/12 06:42:57;;;;;;;2.45;1.92;;;;;;;29.58;41.82;100231.53;1866145;77;21032;-61
2022/06/12 06:48:14;;;;;;;5.55;2.02;;;;;;;29.61;42.26;100231.14;1866220;77;21126;-61
2022/06/12 06:50:43;;;;;;;6.45;2.20;;;;;;;29.53;42.01;100236.73;1866175;77;21055;-64
2022/06/12 06:53:12;;;;;;;5.67;2.33;;;;;;;29.44;41.87;100240.62;1866235;77;21039;-69
2022/06/12 06:55:42;;;;;;;4.33;1.80;;;;;;;29.46;41.84;100237.19;1866020;77;21051;-67
2022/06/12 06:58:14;;;;;;;8.58;2.20;;;;;;;29.41;41.89;100238.28;1875768;75;21123;-66
2022/06/12 07:00:44;;;;;;;4.60;1.53;;;;;;;29.65;42.08;100231.06;1891373;74;21110;-67
2022/06/12 07:03:14;;;;;;;4.45;1.50;;;;;;;29.86;41.96;100229.88;1887645;75;21019;-69
2022/06/12 07:05:46;;;;;;;6.08;2.27;;;;;;;29.98;41.57;100222.88;1877033;75;21094;-71
2022/06/12 07:08:16;;;;;;;6.70;1.62;;;;;;;30.32;41.54;100220.66;1890498;75;21031;-71
2022/06/12 07:10:45;;;;;;;3.15;1.60;;;;;;;30.76;41.17;100219.36;1895431;75;21466;-68
2022/06/12 07:13:14;;;;;;;5.50;1.60;;;;;;;30.93;40.99;100221.73;1893151;75;21003;-66
2022/06/12 07:15:44;;;;;;;4.40;1.60;;;;;;;31.12;40.88;100219.58;1897878;75;21016;-62
2022/06/12 07:18:14;;;;;;;8.85;1.65;;;;;;;31.36;40.63;100220.02;1898396;75;21470;-70
2022/06/12 07:20:47;;;;;;;3.52;1.75;;;;;;;31.66;40.66;100211.44;1898241;75;21035;-67
2022/06/12 07:23:17;;;;;;;4.67;2.08;;;;;;;31.97;40.09;100216.20;1898404;75;21044;-67
2022/06/12 07:25:49;;;;;;;2.12;1.45;;;;;;;32.52;39.69;100214.46;1898613;75;21078;-69
2022/06/12 07:28:18;;;;;;;2.33;1.47;;;;;;;32.65;39.05;100211.69;1898487;75;21043;-68
2022/06/12 07:30:47;;;;;;;4.75;1.90;;;;;;;32.42;38.34;100212.18;1904527;75;21689;-68
2022/06/12 07:33:15;;;;;;;4.08;1.62;;;;;;;32.19;38.09;100209.98;1910198;75;21116;-68
2022/06/12 07:35:45;;;;;;;3.95;1.85;;;;;;;32.06;37.08;100222.28;1910370;75;21040;-65
2022/06/12 07:38:16;;;;;;;6.30;1.80;;;;;;;32.09;37.12;100207.72;1910547;75;21015;-66
2022/06/12 07:40:48;;;;;;;12.90;2.17;;;;;;;32.19;37.10;100211.34;1910273;75;21499;-65
2022/06/12 07:43:16;;;;;;;4.17;1.80;;;;;;;32.48;36.61;100213.20;1910602;75;21039;-65
2022/06/12 07:45:46;;;;;;;3.95;2.17;;;;;;;32.87;36.85;100209.47;1910246;75;21431;-65
2022/06/12 07:48:16;;;;;;;2.47;1.87;;;;;;;33.30;36.43;100205.73;1910411;75;21039;-65
2022/06/12 07:50:48;;;;;;;6.30;2.00;;;;;;;33.45;34.60;100217.13;1910360;75;21113;-66
2022/06/12 07:53:19;;;;;;;4.95;1.72;;;;;;;33.22;34.24;100215.03;1910239;75;21318;-68
2022/06/12 07:55:50;;;;;;;2.70;1.47;;;;;;;32.81;33.83;100202.67;1910469;75;21040;-67
2022/06/12 07:58:23;;;;;;;5.83;2.17;;;;;;;32.60;34.10;100206.05;1910092;75;21027;-66
2022/06/12 08:00:57;;;;;;;6.60;1.98;;;;;;;32.32;33.92;100199.03;1910408;75;21035;-64
2022/06/12 08:03:27;;;;;;;4.72;2.00;;;;;;;32.08;34.25;100195.67;1907501;75;20995;-64
2022/06/12 08:05:57;;;;;;;11.65;2.70;;;;;;;31.93;33.78;100202.70;1909985;75;21031;-68
2022/06/12 08:08:26;;;;;;;12.78;2.47;;;;;;;32.16;34.43;100194.59;1910280;75;21036;-65
2022/06/12 08:10:55;;;;;;;4.03;2.40;;;;;;;32.80;34.76;100190.13;1910165;75;21137;-64
2022/06/12 08:13:24;;;;;;;5.95;1.95;;;;;;;33.34;34.25;100196.03;1910165;75;21063;-64
2022/06/12 08:15:54;;;;;;;4.28;1.60;;;;;;;33.55;33.23;100192.05;1910214;75;21486;-60
2022/06/12 08:18:23;;;;;;;6.35;1.45;;;;;;;33.53;32.73;100190.91;1910330;75;21490;-63
2022/06/12 08:20:54;;;;;;;5.50;2.45;;;;;;;33.64;32.37;100190.70;1910116;75;21772;-62
2022/06/12 08:23:34;;;;;;;4.72;1.82;;;;;;;33.84;32.13;100189.17;1909776;74;21105;-61
2022/06/12 08:26:02;;;;;;;4.92;2.20;;;;;;;33.79;31.78;100183.03;1909166;74;21042;-64
2022/06/12 08:28:33;;;;;;;5.78;1.90;;;;;;;33.66;31.79;100184.52;1907399;75;21043;-63
2022/06/12 08:31:05;;;;;;;2.33;1.43;;;;;;;33.47;31.89;100180.36;1906411;75;21138;-63
2022/06/12 08:33:36;;;;;;;4.13;1.57;;;;;;;33.39;32.08;100183.39;1906850;75;21055;-64
2022/06/12 08:36:07;;;;;;;9.48;1.70;;;;;;;33.07;31.92;100175.24;1912007;75;21035;-63
2022/06/12 08:38:35;;;;;;;2.70;1.52;;;;;;;32.66;32.32;100166.19;1919409;75;21035;-63
2022/06/12 08:41:13;;;;;;;3.20;1.50;;;;;;;32.22;32.51;100167.84;1919319;75;21028;-62
2022/06/12 08:43:50;;;;;;;4.50;2.10;;;;;;;31.66;32.65;100167.37;1897459;75;21039;-62
2022/06/12 08:46:34;;;;;;;4.72;2.62;;;;;;;31.26;33.08;100162.47;1919257;75;21145;-61
2022/06/12 08:49:09;;;;;;;5.12;1.85;;;;;;;31.07;33.58;100163.62;1919781;74;21051;-63
2022/06/12 08:51:41;;;;;;;2.80;1.45;;;;;;;31.12;33.87;100159.75;1919292;75;21090;-62
2022/06/12 08:54:15;;;;;;;3.17;1.50;;;;;;;31.28;33.77;100157.65;1918824;75;21019;-64
2022/06/12 08:56:49;;;;;;;4.00;1.55;;;;;;;31.81;33.71;100152.15;1919256;74;21180;-59
2022/06/12 08:59:39;;;;;;;4.65;1.40;;;;;;;32.26;33.43;100152.23;1919446;75;21071;-63
2022/06/12 09:02:10;;;;;;;5.15;1.40;;;;;;;32.60;32.98;100148.83;1919258;75;21090;-63
2022/06/12 09:04:39;;;;;;;4.20;1.25;;;;;;;32.95;33.02;100148.91;1920486;75;21001;-65
2022/06/12 09:07:10;;;;;;;2.08;1.30;;;;;;;33.20;32.63;100138.87;1920973;75;21092;-65
2022/06/12 09:09:46;;;;;;;5.58;1.20;;;;;;;33.55;32.96;100138.33;1921113;73;21048;-64
2022/06/12 09:12:26;;;;;;;4.17;1.85;;;;;;;33.78;32.40;100134.11;1920970;75;21009;-65
2022/06/12 09:15:14;;;;;;;6.80;1.65;;;;;;;33.71;32.71;100117.80;1920360;74;21017;-65
2022/06/12 09:17:58;;;;;;;4.78;1.40;;;;;;;33.65;32.65;100126.37;1920261;73;21592;-62
2022/06/12 09:20:47;;;;;;;2.17;1.27;;;;;;;33.87;32.24;100129.19;1920911;74;21044;-64
2022/06/12 09:23:18;;;;;;;3.12;1.25;;;;;;;34.11;30.88;100098.20;1920994;75;21114;-62
2022/06/12 09:25:59;;;;;;;2.87;1.63;;;;;;;34.11;30.88;100098.20;1921180;74;21045;-62
2022/06/12 09:28:59;;;;;;;8.95;3.45;;;;;;;34.53;31.46;100101.00;1920965;73;21123;-63
2022/06/12 09:31:37;;;;;;;4.03;1.55;;;;;;;34.73;31.15;100105.34;1917180;74;21586;-62
2022/06/12 09:34:11;;;;;;;3.05;1.55;;;;;;;34.71;30.29;100103.38;1908130;74;21053;-62
2022/06/12 09:36:48;;;;;;;4.45;1.60;;;;;;;34.92;30.54;100099.27;1908263;74;21559;-61
2022/06/12 09:39:23;;;;;;;2.87;1.45;;;;;;;35.26;30.38;100100.91;1908288;75;21049;-63
2022/06/12 09:41:57;;;;;;;5.10;1.30;;;;;;;35.33;29.48;100096.97;1896310;75;21050;-63
2022/06/12 09:44:29;;;;;;;3.85;1.12;;;;;;;35.49;29.58;100088.56;1895315;76;21049;-63
2022/06/12 09:47:27;;;;;;;4.80;1.52;;;;;;;35.58;29.48;100090.41;1895568;76;21046;-63
2022/06/12 09:50:02;;;;;;;3.40;1.90;;;;;;;35.77;29.77;100082.89;1895324;75;21155;-63
2022/06/12 09:52:52;;;;;;;4.80;1.45;;;;;;;36.23;29.17;100084.36;1895152;76;21045;-63
2022/06/12 09:55:26;;;;;;;2.17;1.37;;;;;;;36.23;28.47;100082.99;1895396;76;21041;-63
2022/06/12 09:58:14;;;;;;;2.70;1.12;;;;;;;36.25;28.80;100079.47;1895426;76;21119;-63
2022/06/12 10:00:45;;;;;;;3.05;1.30;;;;;;;36.10;27.86;100074.50;1895374;76;21038;-63
2022/06/12 10:03:39;;;;;;;2.40;1.35;;;;;;;36.10;28.12;100069.84;1895375;72;21041;-63
2022/06/12 10:06:22;;;;;;;3.98;1.27;;;;;;;36.13;27.73;100063.88;1895612;76;21523;-64
2022/06/12 10:08:53;;;;;;;3.15;1.10;;;;;;;36.00;27.76;100051.83;1895515;76;21103;-64
2022/06/12 10:11:25;;;;;;;5.85;1.45;;;;;;;35.70;28.03;100056.17;1895502;76;21472;-65
2022/06/12 10:14:02;;;;;;;5.07;1.37;;;;;;;35.55;28.40;100048.45;1895580;76;21751;-64
2022/06/12 10:16:40;;;;;;;1.95;1.05;;;;;;;35.29;28.17;100049.27;1869028;75;21790;-63
2022/06/12 10:19:30;;;;;;;4.08;1.30;;;;;;;35.10;28.73;100045.81;1895541;76;21085;-64
2022/06/12 10:22:02;;;;;;;5.85;1.40;;;;;;;35.05;29.09;100038.02;1895257;76;21143;-64
2022/06/12 10:24:31;;;;;;;2.53;1.20;;;;;;;34.78;28.85;100041.22;1895580;76;21115;-64
2022/06/12 10:27:02;;;;;;;1.35;1.00;;;;;;;34.57;28.96;100048.06;1895399;76;21371;-64
2022/06/12 10:29:46;;;;;;;9.28;1.42;;;;;;;34.21;27.54;100041.16;1895542;76;21111;-63
2022/06/12 10:32:17;;;;;;;9.73;1.90;;;;;;;33.90;26.84;100031.78;1863230;75;21077;-63
2022/06/12 10:34:46;;;;;;;8.65;1.87;;;;;;;33.61;26.81;100028.77;1895592;76;21021;-63
2022/06/12 10:37:20;;;;;;;5.30;2.75;;;;;;;33.56;27.26;100028.08;1895404;75;21033;-58
2022/06/12 10:40:01;;;;;;;10.98;2.75;;;;;;;33.39;27.62;100019.68;1895115;73;21081;-63
2022/06/12 10:42:38;;;;;;;3.40;1.40;;;;;;;33.39;27.62;100019.68;1872810;74;21204;-61
2022/06/12 10:45:08;;;;;;;9.95;1.90;;;;;;;33.36;27.50;100024.22;1865914;77;21031;-61
2022/06/12 10:47:45;;;;;;;9.88;1.80;;;;;;;33.34;27.54;100015.43;1894150;75;21486;-61
2022/06/12 10:50:29;;;;;;;5.25;1.40;;;;;;;33.43;27.78;100006.42;1898184;75;21008;-62
2022/06/12 10:53:03;;;;;;;6.50;1.35;;;;;;;33.48;27.38;100012.03;1898133;75;21507;-61
2022/06/12 10:56:02;;;;;;;9.63;1.20;;;;;;;33.43;27.24;99994.97;1898206;75;21114;-63
2022/06/12 10:58:37;;;;;;;5.60;1.27;;;;;;;33.48;27.15;99999.75;1888503;72;21035;-62
2022/06/12 11:01:08;;;;;;;4.33;1.42;;;;;;;33.47;27.13;99997.53;1865899;77;21034;-62
2022/06/12 11:03:42;;;;;;;3.62;1.40;;;;;;;33.48;27.03;99990.20;1851632;75;21016;-62
2022/06/12 11:06:16;;;;;;;4.67;1.40;;;;;;;33.51;26.99;99991.63;1866960;75;21044;-61
2022/06/12 11:09:14;;;;;;;5.00;2.08;;;;;;;33.54;27.13;99989.27;1866404;75;21043;-61
2022/06/12 11:11:52;;;;;;;4.37;1.35;;;;;;;33.55;27.06;99995.55;1866180;77;21051;-61
2022/06/12 11:14:46;;;;;;;6.70;2.60;;;;;;;33.36;26.02;99986.02;1856639;77;21117;-62
2022/06/12 11:17:42;;;;;;;3.67;1.60;;;;;;;33.21;24.96;99980.13;1866029;77;21110;-61
2022/06/12 11:20:35;;;;;;;7.12;1.15;;;;;;;33.11;25.22;99976.54;1866047;77;21050;-62
2022/06/12 11:23:18;;;;;;;5.22;1.98;;;;;;;33.06;25.02;99973.11;1866221;77;21113;-62
2022/06/12 11:25:50;;;;;;;4.92;1.70;;;;;;;33.02;25.02;99971.91;1866059;77;21502;-61
2022/06/12 11:28:21;;;;;;;9.50;1.70;;;;;;;33.06;25.24;99973.66;1867910;75;21059;-61
2022/06/12 11:30:58;;;;;;;12.80;2.05;;;;;;;33.17;25.30;99957.09;1866953;75;21138;-62
2022/06/12 11:33:30;;;;;;;5.65;1.10;;;;;;;33.25;25.53;99960.88;1881635;75;21557;-62
2022/06/12 11:36:04;;;;;;;3.57;1.00;;;;;;;33.37;25.02;99954.96;1892078;74;21372;-62
2022/06/12 11:38:50;;;;;;;2.12;1.20;;;;;;;33.32;24.51;99955.34;1890790;76;21567;-62
2022/06/12 11:41:55;;;;;;;5.05;1.47;;;;;;;33.24;24.53;99951.04;1890740;76;21062;-62
2022/06/12 11:44:36;;;;;;;4.90;1.57;;;;;;;33.31;25.33;99940.03;1890825;76;21160;-61
2022/06/12 11:47:07;;;;;;;2.87;1.00;;;;;;;33.32;25.23;99941.70;1891069;76;21046;-62
2022/06/12 11:50:12;;;;;;;1.07;0.60;;;;;;;33.28;24.97;99950.88;1891069;71;21493;-62
2022/06/12 11:53:08;;;;;;;4.53;1.32;;;;;;;33.14;24.16;99949.36;1890841;76;21453;-62
2022/06/12 11:55:46;;;;;;;3.17;1.10;;;;;;;32.96;24.52;99946.06;1890740;76;21132;-63
2022/06/12 11:58:41;;;;;;;2.77;1.35;;;;;;;32.83;25.18;99945.16;1890841;76;21607;-62
2022/06/12 12:01:48;;;;;;;3.95;1.65;;;;;;;32.74;25.53;99946.52;1890789;76;21171;-61
2022/06/12 12:04:34;;;;;;;4.90;1.57;;;;;;;32.57;25.63;99944.84;1891008;74;22169;-62
2022/06/12 12:07:08;;;;;;;9.23;2.52;;;;;;;32.44;25.71;99938.16;1892445;74;21508;-62
2022/06/12 12:10:13;;;;;;;20.57;7.87;;;;;;;32.35;25.89;99943.05;1890867;76;21108;-62
2022/06/12 12:12:45;;;;;;;6.15;2.85;;;;;;;32.32;26.18;99940.25;1890893;76;21074;-62
2022/06/12 12:15:16;;;;;;;3.83;1.55;;;;;;;32.35;26.76;99932.15;1891072;76;21187;-62